Flight Track Log - Related Links

Times and Time Zones

All times are in EDT time to prevent confusion due to time zone crossing. See the EJA929 flight status page for this flight to view local times or setup timezone preferences in your user account.

Time Position Orientation Groundspeed Altitude Reporting Facility
EDT Latitude Longitude Course Direction KTS MPH feet Rate Location/Type
Thu 01:14:45 PM 44.9000 -93.2667 282° West 206 237 3,500  Level Minneapolis TRACON
Thu 01:16:12 PM 44.9239 -93.3889 285° West 267 307 8,800 3,906 Climbing Minneapolis Center
Thu 01:17:14 PM 44.9433 -93.5150 282° West 284 327 13,200 3,629 Climbing Minneapolis Center
Thu 01:18:16 PM 44.9636 -93.6422 283° West 334 384 16,300 2,352 Climbing Minneapolis Center
Thu 01:19:19 PM 44.9847 -93.7756 283° West 349 402 18,100 1,584 Climbing Minneapolis Center
Thu 01:20:00 PM 45.0431 -94.1630 282° West  Level FlightAware Approximate
Thu 01:20:21 PM 45.0050 -93.9108 282° West 352 405 19,600  Level Minneapolis Center
Thu 01:21:23 PM 45.0267 -94.0514 282° West 362 417 21,100 1,645 Climbing Minneapolis Center
Thu 01:22:25 PM 45.0522 -94.2236 282° West 372 428 23,000 1,694 Climbing Minneapolis Center
Thu 01:23:27 PM 45.0761 -94.3703 283° West 380 437 24,600 1,597 Climbing Minneapolis Center
Thu 01:24:29 PM 45.0953 -94.5225 280° West 391 450 26,300 1,597 Climbing Minneapolis Center
Thu 01:25:31 PM 45.1114 -94.6897 278° West 397 457 27,900 1,694 Climbing Minneapolis Center
Thu 01:26:33 PM 45.1272 -94.8475 278° West 404 465 29,800 1,694 Climbing Minneapolis Center
Thu 01:27:35 PM 45.1422 -95.0028 278° West 401 461 31,400 1,887 Climbing Minneapolis Center
Thu 01:28:37 PM 45.1569 -95.1564 278° West 397 457 33,700 2,323 Climbing Minneapolis Center
Thu 01:29:39 PM 45.1700 -95.3017 277° West 379 436 36,200 2,064 Climbing Minneapolis Center
Thu 01:30:42 PM 45.1864 -95.4672 278° West 359 413 38,000 1,584 Climbing Minneapolis Center
Thu 01:31:44 PM 45.1986 -95.6064 277° West 358 412 39,500 1,191 Climbing Minneapolis Center
Thu 01:32:58 PM 45.1956 -95.7447 268° West 355 409 40,700 1,015 Climbing Minneapolis Center
Thu 01:34:00 PM 45.1786 -95.9092 262° West 353 406 41,800 926 Climbing Minneapolis Center
Thu 01:35:14 PM 45.1592 -96.0461 259° West 356 410 42,800 526 Climbing Minneapolis Center
Thu 01:36:17 PM 45.1569 -96.2483 269° West 379 436 43,000 96 Climbing Minneapolis Center
Thu 01:37:19 PM 45.1728 -96.4028 278° West 395 455 43,000  Level Minneapolis Center
Thu 01:38:21 PM 45.1881 -96.5617 278° West 407 468 43,000  Level Minneapolis Center
Thu 01:39:23 PM 45.2036 -96.7261 278° West 421 484 43,000  Level Minneapolis Center
Thu 01:40:25 PM 45.2194 -96.8922 278° West 426 490 43,000  Level Minneapolis Center
Thu 01:41:27 PM 45.2400 -97.0944 278° West 432 497 43,000  Level Minneapolis Center
Thu 01:42:29 PM 45.2547 -97.2597 277° West 428 493 43,000  Level Minneapolis Center
Thu 01:43:31 PM 45.2708 -97.4267 278° West 429 494 43,000  Level Minneapolis Center
Thu 01:44:33 PM 45.2858 -97.5942 277° West 430 495 43,000  Level Minneapolis Center
Thu 01:45:36 PM 45.3008 -97.7614 277° West 429 494 43,000  Level Minneapolis Center
Thu 01:46:38 PM 45.3183 -97.9664 277° West 435 501 43,000  Level Minneapolis Center
Thu 01:47:40 PM 45.3322 -98.1400 277° West 438 504 43,000  Level Minneapolis Center
Thu 01:48:42 PM 45.3467 -98.3117 277° West 438 504 43,000  Level Minneapolis Center
Thu 01:49:44 PM 45.3614 -98.4808 277° West 435 501 43,000  Level Minneapolis Center
Thu 01:50:46 PM 45.3747 -98.6511 276° West 435 501 43,000  Level Minneapolis Center
Thu 01:51:48 PM 45.3878 -98.8203 276° West 433 498 43,000  Level Minneapolis Center
Thu 01:52:50 PM 45.4014 -98.9900 277° West 433 498 43,000  Level Minneapolis Center
Thu 01:53:52 PM 45.4167 -99.1953 276° West 436 502 43,000  Level Minneapolis Center
Thu 01:54:54 PM 45.4300 -99.3664 276° West 438 504 43,000  Level Minneapolis Center
Thu 01:55:56 PM 45.4422 -99.5386 276° West 440 506 43,000  Level Minneapolis Center
Thu 01:56:58 PM 45.4544 -99.7092 276° West 438 504 43,000  Level Minneapolis Center
Thu 01:58:00 PM 45.4658 -99.8806 275° West 439 505 43,000  Level Minneapolis Center
Thu 01:59:03 PM 45.4803 -100.0867 276° West 439 505 43,000  Level Minneapolis Center
Thu 02:00:06 PM 45.4911 -100.2578 275° West 439 505 43,000  Level Minneapolis Center
Thu 02:01:08 PM 45.5031 -100.4322 276° West 443 510 43,000  Level Minneapolis Center
Thu 02:02:10 PM 45.5142 -100.6064 275° West 444 511 43,000  Level Minneapolis Center
Thu 02:03:12 PM 45.5261 -100.8178 275° West 447 514 43,000  Level Minneapolis Center
Thu 02:04:14 PM 45.5361 -100.9950 275° West 449 517 43,000  Level Minneapolis Center
Thu 02:05:16 PM 45.5481 -101.1725 276° West 450 518 43,000  Level Minneapolis Center
Thu 02:06:18 PM 45.5589 -101.3519 275° West 454 522 43,000  Level Minneapolis Center
Thu 02:07:20 PM 45.5692 -101.5311 275° West 453 521 43,000  Level Minneapolis Center
Thu 02:08:35 PM 45.5814 -101.7469 275° West 455 524 43,000  Level Minneapolis Center
Thu 02:09:37 PM 45.5919 -101.9647 274° West 459 528 43,000  Level Minneapolis Center
Thu 02:10:39 PM 45.5994 -102.1464 273° West 459 528 43,000  Level Minneapolis Center
Thu 02:11:41 PM 45.6094 -102.3272 275° West 459 528 43,000  Level Minneapolis Center
Thu 02:12:43 PM 45.6169 -102.5094 273° West 459 528 43,000  Level Minneapolis Center
Thu 02:13:45 PM 45.6250 -102.7097 273° West 461 531 43,000  Level Minneapolis Center
Thu 02:14:48 PM 45.6328 -102.8914 274° West 460 529 43,000  Level Minneapolis Center
Thu 02:15:50 PM 45.6414 -103.0722 274° West 458 527 43,000  Level Minneapolis Center
Thu 02:16:52 PM 45.6475 -103.2536 273° West 457 526 43,000  Level Minneapolis Center
Thu 02:17:34 PM 45.6525 -103.3994 273° West 463 533 43,000  Level Salt Lake Center
Thu 02:18:36 PM 45.6586 -103.5833 273° West 463 533 43,000  Level Salt Lake Center
Thu 02:19:38 PM 45.6653 -103.7714 273° West 462 532 43,000  Level Salt Lake Center
Thu 02:20:40 PM 45.6717 -103.9508 273° West 464 534 43,000  Level Salt Lake Center
Thu 02:21:42 PM 45.6767 -104.1356 272° West 464 534 43,000  Level Salt Lake Center
Thu 02:22:44 PM 45.6825 -104.3200 273° West 466 536 43,000  Level Salt Lake Center
Thu 02:23:46 PM 45.6886 -104.5353 272° West 464 534 43,000  Level Salt Lake Center
Thu 02:24:48 PM 45.6947 -104.7214 273° West 469 540 43,000  Level Salt Lake Center
Thu 02:25:50 PM 45.6992 -104.9064 272° West 469 540 43,000  Level Salt Lake Center
Thu 02:26:52 PM 45.7031 -105.0917 272° West 468 539 43,000  Level Salt Lake Center
Thu 02:27:54 PM 45.7078 -105.3158 272° West 470 541 43,000  Level Salt Lake Center
Thu 02:28:56 PM 45.7119 -105.5008 272° West 469 540 43,000  Level Salt Lake Center
Thu 02:29:58 PM 45.7156 -105.6894 272° West 473 544 43,000  Level Salt Lake Center
Thu 02:31:00 PM 45.7181 -105.8775 271° West 475 547 43,000  Level Salt Lake Center
Thu 02:32:03 PM 45.7208 -106.0644 271° West 471 542 43,000  Level Salt Lake Center
Thu 02:33:05 PM 45.7211 -106.2486 270° West 467 537 43,000  Level Salt Lake Center
Thu 02:34:07 PM 45.7225 -106.4725 271° West 468 539 43,000  Level Salt Lake Center
Thu 02:35:09 PM 45.7261 -106.6636 272° West 477 549 43,000  Level Salt Lake Center
Thu 02:36:11 PM 45.7289 -106.8539 271° West 480 552 43,000  Level Salt Lake Center
Thu 02:37:13 PM 45.7308 -107.0467 271° West 484 557 43,000  Level Salt Lake Center
Thu 02:38:15 PM 45.7314 -107.2356 270° West 480 552 43,000  Level Salt Lake Center
Thu 02:39:17 PM 45.7317 -107.4617 270° West 477 549 43,000  Level Salt Lake Center
Thu 02:40:19 PM 45.7328 -107.6531 271° West 483 556 43,000  Level Salt Lake Center
Thu 02:41:21 PM 45.7319 -107.8436 270° West 482 555 43,000  Level Salt Lake Center
Thu 02:42:23 PM 45.7314 -108.0358 270° West 487 560 43,000 -581 Level Salt Lake Center
Thu 02:43:25 PM 45.7306 -108.2261 270° West 483 556 41,800 -1,742 Descending Salt Lake Center
Thu 02:44:27 PM 45.7281 -108.4483 269° West 469 540 39,400 -2,419 Descending Salt Lake Center
Thu 02:45:29 PM 45.7267 -108.6408 269° West 485 558 36,800 -2,758 Descending Salt Lake Center
Thu 02:46:31 PM 45.7258 -108.8278 270° West 473 544 33,700 -3,000 Descending Salt Lake Center
Thu 02:47:33 PM 45.7228 -109.0133 269° West 470 541 30,600 -3,000 Descending Salt Lake Center
Thu 02:48:35 PM 45.6964 -109.2006 259° West 475 547 27,500 -3,000 Descending Salt Lake Center
Thu 02:49:37 PM 45.6744 -109.3836 260° West 471 542 24,400 -2,613 Descending Salt Lake Center
Thu 02:50:39 PM 45.6797 -109.5964 272° West 446 513 22,100 -2,323 Descending Salt Lake Center
Thu 02:51:41 PM 45.6844 -109.7653 272° West 419 482 19,600 -2,323 Descending Salt Lake Center
Thu 02:52:43 PM 45.6869 -109.9208 271° West 408 470 17,300 -2,468 Descending Salt Lake Center
Thu 02:53:45 PM 45.6903 -110.0728 272° West 390 449 14,500 -1,680 Descending Salt Lake Center
Thu 02:54:48 PM 45.6950 -110.2394 272° West 377 434 13,800 -667 Descending Salt Lake Center
Thu 02:56:00 PM 45.6833 -110.4333 270° West  Level FlightAware Approximate
Thu 03:03:00 PM 45.6994 -110.4480 270° West  Level Estimated
Thu 03:04:00 PM 45.6994 -110.4480 270° West  Level Estimated
Thu 03:05:00 PM 45.6994 -110.4480 270° West  Level Estimated
Thu 03:06:00 PM 45.6994 -110.4480 270° West  Level Estimated
Thu 03:07:00 PM 45.6994 -110.4480 270° West  Level Estimated
Thu 03:08:00 PM 45.6994 -110.4480 270° West  Level Estimated
Thu 03:09:00 PM 45.6994 -110.4480 270° West  Level Estimated
Thu 03:10:00 PM 45.6994 -110.4480 270° West  Level Estimated
Thu 03:11:00 PM 45.6994 -110.4480 270° West  Level Estimated
Thu 03:12:00 PM 45.6994 -110.4480 270° West  Level Estimated
Thu 03:13:00 PM 45.6994 -110.4480 270° West  Level Estimated
Thu 03:14:00 PM 45.6994 -110.4480 270° West  Level Estimated

Login

Don't have an account? Register now (free) for customized features, flight alerts, and more!